Welcome to this demonstration website - Welkom op de demo website - Bienvenue sur ce site de démonstration - Willkommen auf dieser Demonstration Website


my webcam  My webcam


thunder radar more information blitzortung!


rain radar more information rain snow radar


visit our other weather sites:

Template documentation
and downloads

And another site



weather underground history page text

daily summary for april 20, 2018 units:  metric    english   both
« previous day
next day »
daily weekly monthly yearly custom
  current: high: low: average:
temperature: -2.4 °C -17.8 °C -10.7 °C -7.5 °C
dew point: -12.2 °C -17.8 °C -12.7 °C -12 °C
humidity: 33 % Humidity % 32 % 61 %
wind speed: 10.3 km/h 0 km/h 0 km/h 3.2 km/h
wind gust: 18.2 km/h 0 km/h - -
wind:SW - - SSE
pressure: 34659.1 hPa 0 hPa 34659.1 hPa -
precipitation: 0 mm      
Historical Graphs
 
 
tabular data for april 20, 2018
time temperature dew point pressure wind wind speed wind gust humidity rainfall rate (hourly)
-17.8 °C -17.8 °C 0 hPa Calm     Humidity % 0 mm
00:05 -8.1 °C -11.9 °C 34703.1 hPa Calm   5.1 km/h 64 % 0 mm
00:10 -8 °C -11.8 °C 34703.1 hPa Calm     64 % 0 mm
00:16 -8 °C -11.8 °C 34703.1 hPa Calm   2.6 km/h 64 % 0 mm
00:22 -8.2 °C -12 °C 34703.1 hPa Calm     64 % 0 mm
00:27 -8.3 °C -11.9 °C 34703.1 hPa NE 2.3 km/h 2.6 km/h 65 % 0 mm
00:32 -8.4 °C -11.9 °C 34703.1 hPa Calm   2.6 km/h 66 % 0 mm
00:38 -8.4 °C -12 °C 34703.1 hPa Calm     66 % 0 mm
00:43 -8.6 °C -12 °C 34703.1 hPa Calm     67 % 0 mm
00:49 -8.7 °C -12 °C 34703.1 hPa Calm   2.6 km/h 68 % 0 mm
00:54 -8.7 °C -12.1 °C 34703.1 hPa Calm   2.6 km/h 67 % 0 mm
01:00 -8.5 °C -11.9 °C 34703.1 hPa Calm     67 % 0 mm
01:06 -8.6 °C -12 °C 34703.1 hPa NE 2.3 km/h 2.6 km/h 67 % 0 mm
01:12 -8.7 °C -12.1 °C 34703.1 hPa Calm   2.6 km/h 67 % 0 mm
01:17 -8.7 °C -12.1 °C 34703.1 hPa NE 2.3 km/h 2.6 km/h 67 % 0 mm
01:23 -8.8 °C -12.1 °C 34703.1 hPa Calm     68 % 0 mm
01:28 -8.9 °C -12.2 °C 34703.1 hPa Calm     68 % 0 mm
01:33 -9 °C -12.2 °C 34703.1 hPa Calm     69 % 0 mm
01:40 -9 °C -12.2 °C 34703.1 hPa Calm     69 % 0 mm
01:45 -9 °C -12.2 °C 34703.1 hPa Calm     69 % 0 mm
01:51 -9.1 °C -12.1 °C 34703.1 hPa Calm     70 % 0 mm
01:56 -9.1 °C -12 °C 34703.1 hPa Calm     71 % 0 mm
02:02 -9.2 °C -12.2 °C 34703.1 hPa Calm     70 % 0 mm
02:08 -9.2 °C -12.1 °C 34703.1 hPa Calm     71 % 0 mm
02:14 -9.3 °C -12.2 °C 34703.1 hPa Calm     71 % 0 mm
02:19 -9.3 °C -12.1 °C 34703.1 hPa Calm     72 % 0 mm
02:24 -9.3 °C -12.1 °C 34703.1 hPa Calm     72 % 0 mm
02:30 -9.4 °C -12.2 °C 34703.1 hPa Calm     72 % 0 mm
02:35 -9.4 °C -12.1 °C 34703.1 hPa NNW 5.1 km/h 5.1 km/h 73 % 0 mm
02:41 -9.4 °C -12.1 °C 34703.1 hPa Calm     73 % 0 mm
02:46 -9.4 °C -12.1 °C 34703.1 hPa Calm     73 % 0 mm
02:52 -9.6 °C -12.2 °C 34703.1 hPa Calm     73 % 0 mm
02:57 -9.6 °C -12.2 °C 34703.1 hPa Calm     74 % 0 mm
03:03 -9.6 °C -12.2 °C 34693 hPa Calm     74 % 0 mm
03:09 -9.7 °C -12.2 °C 34703.1 hPa Calm     74 % 0 mm
03:14 -9.9 °C -12.4 °C 34693 hPa Calm     75 % 0 mm
03:20 -9.9 °C -12.3 °C 34693 hPa Calm     76 % 0 mm
03:26 -10.2 °C -12.5 °C 34693 hPa Calm     76 % 0 mm
03:32 -10.1 °C -12.3 °C 34693 hPa Calm     77 % 0 mm
03:37 -10.2 °C -12.6 °C 34693 hPa Calm     76 % 0 mm
03:42 -10.4 °C -12.5 °C 34693 hPa Calm     78 % 0 mm
03:48 -10.4 °C -12.6 °C 34693 hPa Calm     78 % 0 mm
03:53 -10.5 °C -12.5 °C 34693 hPa Calm     79 % 0 mm
03:59 -10.5 °C -12.5 °C 34693 hPa Calm     79 % 0 mm
04:04 -10.6 °C -12.6 °C 34693 hPa Calm     79 % 0 mm
04:10 -10.6 °C -12.5 °C 34693 hPa Calm     80 % 0 mm
04:15 -10.6 °C -12.6 °C 34693 hPa Calm     79 % 0 mm
04:21 -10.6 °C -12.5 °C 34693 hPa Calm     80 % 0 mm
04:27 -10.6 °C -12.6 °C 34693 hPa Calm     79 % 0 mm
04:33 -10.5 °C -12.5 °C 34693 hPa Calm     79 % 0 mm
04:39 -10.4 °C -12.6 °C 34682.8 hPa Calm     78 % 0 mm
04:45 -10.4 °C -12.6 °C 34682.8 hPa Calm     78 % 0 mm
04:50 -10.4 °C -12.5 °C 34682.8 hPa Calm     78 % 0 mm
04:56 -10.4 °C -12.5 °C 34682.8 hPa Calm     78 % 0 mm
05:03 -10.4 °C -12.6 °C 34682.8 hPa Calm     78 % 0 mm
05:08 -10.4 °C -12.6 °C 34682.8 hPa Calm     78 % 0 mm
05:13 -10.4 °C -12.6 °C 34682.8 hPa Calm     78 % 0 mm
05:18 -10.4 °C -12.6 °C 34682.8 hPa Calm     78 % 0 mm
05:23 -10.4 °C -12.6 °C 34682.8 hPa Calm     78 % 0 mm
05:28 -10.4 °C -12.6 °C 34669.3 hPa Calm     78 % 0 mm
05:34 -10.5 °C -12.6 °C 34669.3 hPa Calm     78 % 0 mm
05:40 -10.5 °C -12.6 °C 34669.3 hPa Calm   2.6 km/h 78 % 0 mm
05:46 -10.5 °C -12.6 °C 34669.3 hPa Calm     78 % 0 mm
05:52 -10.5 °C -12.6 °C 34669.3 hPa Calm     78 % 0 mm
05:58 -10.5 °C -12.6 °C 34669.3 hPa Calm     78 % 0 mm
06:03 -10.6 °C -12.6 °C 34669.3 hPa Calm     78 % 0 mm
06:09 -10.6 °C -12.7 °C 34669.3 hPa Calm   2.6 km/h 78 % 0 mm
06:15 -10.7 °C -12.7 °C 34669.3 hPa Calm     79 % 0 mm
06:20 -10.7 °C -12.7 °C 34669.3 hPa Calm   2.6 km/h 79 % 0 mm
06:26 -10.7 °C -12.7 °C 34669.3 hPa Calm     78 % 0 mm
06:31 -10.7 °C -12.7 °C 34669.3 hPa Calm     79 % 0 mm
06:36 -10.6 °C -12.7 °C 34669.3 hPa Calm   2.6 km/h 78 % 0 mm
06:42 -10.6 °C -12.6 °C 34669.3 hPa Calm   2.6 km/h 78 % 0 mm
06:47 -10.6 °C -12.7 °C 34669.3 hPa NW 2.3 km/h 5.1 km/h 78 % 0 mm
06:53 -10.6 °C -12.7 °C 34669.3 hPa North 5.1 km/h 5.1 km/h 78 % 0 mm
06:58 -10.5 °C -12.7 °C 34669.3 hPa North 5.1 km/h 10.3 km/h 77 % 0 mm
07:03 -10.4 °C -12.7 °C 34669.3 hPa Calm   5.1 km/h 76 % 0 mm
07:09 -10.4 °C -12.6 °C 34669.3 hPa NNE 2.3 km/h 2.6 km/h 77 % 0 mm
07:14 -10.4 °C -12.7 °C 34669.3 hPa NNE 2.3 km/h 5.1 km/h 76 % 0 mm
07:20 -10.3 °C -12.6 °C 34669.3 hPa NE 10.3 km/h 10.3 km/h 76 % 0 mm
07:25 -10.2 °C -12.6 °C 34669.3 hPa Calm   10.3 km/h 76 % 0 mm
07:30 -10.2 °C -12.6 °C 34669.3 hPa Calm   2.6 km/h 75 % 0 mm
07:36 -10.1 °C -12.6 °C 34669.3 hPa NE 2.3 km/h 10.3 km/h 74 % 0 mm
07:41 -9.9 °C -12.5 °C 34669.3 hPa NNW 2.3 km/h 5.1 km/h 74 % 0 mm
07:46 -9.9 °C -12.4 °C 34669.3 hPa NNW 2.3 km/h 10.3 km/h 74 % 0 mm
07:52 -9.8 °C -12.5 °C 34669.3 hPa North 2.3 km/h 5.1 km/h 73 % 0 mm
07:57 -9.7 °C -12.3 °C 34682.8 hPa North 2.3 km/h 5.1 km/h 73 % 0 mm
08:02 -9.5 °C -12.3 °C 34669.3 hPa NNW 2.3 km/h 5.1 km/h 72 % 0 mm
08:07 -9.3 °C -12.2 °C 34669.3 hPa NNW 5.1 km/h 10.3 km/h 71 % 0 mm
08:13 -9.1 °C -12 °C 34682.8 hPa NNW 2.3 km/h 5.1 km/h 71 % 0 mm
08:18 -8.9 °C -12.1 °C 34669.3 hPa North 2.3 km/h 5.1 km/h 69 % 0 mm
08:23 -8.8 °C -11.9 °C 34669.3 hPa NW 2.3 km/h 10.3 km/h 69 % 0 mm
08:28 -8.6 °C -12 °C 34669.3 hPa ENE 2.3 km/h 10.3 km/h 67 % 0 mm
08:33 -8.4 °C -11.9 °C 34669.3 hPa North 5.1 km/h 10.3 km/h 66 % 0 mm
08:39 -8.2 °C -11.9 °C 34669.3 hPa Calm   2.6 km/h 65 % 0 mm
08:44 -8.1 °C -11.8 °C 34669.3 hPa Calm   2.6 km/h 65 % 0 mm
08:49 -7.9 °C -11.8 °C 34669.3 hPa Calm   5.1 km/h 64 % 0 mm
08:54 -7.9 °C -11.7 °C 34669.3 hPa Calm   2.6 km/h 64 % 0 mm
08:59 -7.6 °C -11.7 °C 34669.3 hPa Calm   2.6 km/h 62 % 0 mm
09:04 -7.6 °C -11.9 °C 34669.3 hPa ESE 5.1 km/h 7.7 km/h 61 % 0 mm
09:09 -7.6 °C -12 °C 34669.3 hPa East 10.3 km/h 10.3 km/h 60 % 0 mm
09:14 -7.6 °C -11.8 °C 34669.3 hPa SE 10.3 km/h 10.3 km/h 61 % 0 mm
09:19 -7.3 °C -11.7 °C 34669.3 hPa East 5.1 km/h 12.9 km/h 60 % 0 mm
09:24 -7.2 °C -11.6 °C 34669.3 hPa SE 5.1 km/h 10.3 km/h 60 % 0 mm
09:30 -6.9 °C -11.5 °C 34669.3 hPa ESE 5.1 km/h 7.7 km/h 59 % 0 mm
09:35 -6.8 °C -11.3 °C 34669.3 hPa ESE 7.6 km/h 10.3 km/h 59 % 0 mm
09:40 -6.6 °C -11.3 °C 34669.3 hPa ESE 2.3 km/h 5.1 km/h 58 % 0 mm
09:45 -6.4 °C -11.3 °C 34669.3 hPa East 5.1 km/h 10.3 km/h 57 % 0 mm
09:50 -6.4 °C -11.4 °C 34669.3 hPa East 2.3 km/h 12.9 km/h 56 % 0 mm
09:56 -6.3 °C -11.3 °C 34669.3 hPa ESE 7.6 km/h 15.6 km/h 56 % 0 mm
10:01 -6.2 °C -11.3 °C 34669.3 hPa ESE 7.6 km/h 15.6 km/h 56 % 0 mm
10:06 -6 °C -11.2 °C 34669.3 hPa East 2.3 km/h 12.9 km/h 55 % 0 mm
10:11 -5.7 °C -10.9 °C 34669.3 hPa ESE 2.3 km/h 7.7 km/h 55 % 0 mm
10:16 -5.7 °C -11.1 °C 34669.3 hPa ESE 5.1 km/h 7.7 km/h 54 % 0 mm
10:21 -5.5 °C -11.1 °C 34669.3 hPa ESE 5.1 km/h 7.7 km/h 53 % 0 mm
10:26 -5.3 °C -11.1 °C 34682.8 hPa ESE 2.3 km/h 10.3 km/h 52 % 0 mm
10:32 -5.2 °C -10.9 °C 34682.8 hPa ESE 5.1 km/h 7.7 km/h 52 % 0 mm
10:37 -5.2 °C -10.9 °C 34682.8 hPa East 7.6 km/h 10.3 km/h 52 % 0 mm
10:42 -4.9 °C -11.1 °C 34682.8 hPa ESE 7.6 km/h 10.3 km/h 50 % 0 mm
10:47 -4.8 °C -10.9 °C 34682.8 hPa ESE 7.6 km/h 15.6 km/h 50 % 0 mm
10:52 -4.7 °C -10.9 °C 34682.8 hPa ESE 7.6 km/h 10.3 km/h 49 % 0 mm
10:57 -4.6 °C -10.7 °C 34682.8 hPa ESE 7.6 km/h 10.3 km/h 50 % 0 mm
11:03 -4.2 °C -10.6 °C 34682.8 hPa ESE 7.6 km/h 7.7 km/h 49 % 0 mm
11:08 -4.3 °C -10.8 °C 34682.8 hPa ESE 2.3 km/h 7.7 km/h 48 % 0 mm
11:13 -4.3 °C -10.8 °C 34682.8 hPa ESE 10.3 km/h 10.3 km/h 48 % 0 mm
11:18 -4.1 °C -10.9 °C 34682.8 hPa East 10.3 km/h 15.6 km/h 46 % 0 mm
11:24 -3.9 °C -10.6 °C 34682.8 hPa SSE 7.6 km/h 10.3 km/h 47 % 0 mm
11:29 -3.7 °C -11.2 °C 34682.8 hPa SSW 2.3 km/h 5.1 km/h 43 % 0 mm
11:34 -3.5 °C -11 °C 34682.8 hPa SW 5.1 km/h 5.1 km/h 43 % 0 mm
11:39 -3.4 °C -10.7 °C 34682.8 hPa East 5.1 km/h 10.3 km/h 44 % 0 mm
11:45 -3.2 °C -11.4 °C 34682.8 hPa South 7.6 km/h 7.7 km/h 40 % 0 mm
11:50 -3 °C -11.2 °C 34682.8 hPa SSE 2.3 km/h 10.3 km/h 40 % 0 mm
11:55 -2.9 °C -10.7 °C 34682.8 hPa ESE 5.1 km/h 5.1 km/h 42 % 0 mm
12:00 -3 °C -11.8 °C 34682.8 hPa SSW 12.7 km/h 20.8 km/h 37 % 0 mm
12:05 -2.8 °C -11.7 °C 34682.8 hPa ESE 7.6 km/h 18.2 km/h 37 % 0 mm
12:11 -2.8 °C -11.4 °C 34682.8 hPa SSE 5.1 km/h 5.1 km/h 38 % 0 mm
12:16 -2.7 °C -11.8 °C 34682.8 hPa East 2.3 km/h 10.3 km/h 36 % 0 mm
12:21 -2.7 °C -11.6 °C 34682.8 hPa East 2.3 km/h 10.3 km/h 37 % 0 mm
12:26 -2.6 °C -11.7 °C 34682.8 hPa SSW 7.6 km/h 12.9 km/h 36 % 0 mm
12:31 -2.6 °C -11.4 °C 34682.8 hPa South 5.1 km/h 15.6 km/h 37 % 0 mm
12:36 -2.7 °C -11.6 °C 34682.8 hPa Calm   18.2 km/h 37 % 0 mm
12:41 -2.6 °C -11.7 °C 34682.8 hPa SW 5.1 km/h 12.9 km/h 36 % 0 mm
12:46 -2.6 °C -11.7 °C 34669.3 hPa SSW 15.6 km/h 23.3 km/h 36 % 0 mm
12:51 -2.6 °C -11.7 °C 34669.3 hPa South 5.1 km/h 18.2 km/h 36 % 0 mm
12:56 -2.6 °C -11.5 °C 34669.3 hPa SSW 17.9 km/h 23.3 km/h 37 % 0 mm
13:02 -2.5 °C -11.4 °C 34669.3 hPa East 10.3 km/h 12.9 km/h 37 % 0 mm
13:07 -2.6 °C -11.7 °C 34669.3 hPa SSW 7.6 km/h 15.6 km/h 36 % 0 mm
13:12 -2.4 °C -11.6 °C 34669.3 hPa SW 5.1 km/h 23.3 km/h 36 % 0 mm
13:17 -2.3 °C -11.2 °C 34669.3 hPa South 7.6 km/h 10.3 km/h 37 % 0 mm
13:22 -2.3 °C -11.9 °C 34669.3 hPa WSW 7.6 km/h 31.1 km/h 34 % 0 mm
13:28 -2.6 °C -11.7 °C 34669.3 hPa SSE 12.7 km/h 20.8 km/h 36 % 0 mm
13:33 -2.3 °C -11.9 °C 34669.3 hPa SSW 10.3 km/h 15.6 km/h 34 % 0 mm
13:38 -2.6 °C -11.9 °C 34669.3 hPa SSE 15.6 km/h 31.1 km/h 35 % 0 mm
13:43 -2.4 °C -12 °C 34669.3 hPa East 10.3 km/h 20.8 km/h 34 % 0 mm
13:49 -2.4 °C -12.1 °C 34669.3 hPa SW 12.7 km/h 23.3 km/h 34 % 0 mm
13:54 -2.2 °C -12.3 °C 34669.3 hPa SW 5.1 km/h 15.6 km/h 32 % 0 mm
14:01 -2.2 °C -12.1 °C 34669.3 hPa South 10.3 km/h 15.6 km/h 33 % 0 mm
14:06 -2.2 °C -12.1 °C 34659.1 hPa South 7.6 km/h 23.3 km/h 33 % 0 mm
14:11 -2.5 °C -12.1 °C 34659.1 hPa South 2.3 km/h 18.2 km/h 34 % 0 mm
14:16 -2.3 °C -12.2 °C 34659.1 hPa SW 20.9 km/h 20.9 km/h 33 % 0 mm
14:21 -2.3 °C -11.7 °C 34659.1 hPa ENE 2.3 km/h 7.7 km/h 35 % 0 mm
14:27 -2.1 °C -12.3 °C 34659.1 hPa South 7.6 km/h 18.2 km/h 32 % 0 mm
14:32 -2.4 °C -12.2 °C 34659.1 hPa SW 10.3 km/h 18.2 km/h 33 % 0 mm
Demo MeteobridgePro
compliments of Weather Underground - 2.25 mb

script developed by  Jim McMurry - jmcmurry@mwt.net adapted for the template by  Wim van der Kuil - Leuven-Template.eu

you find our weather info also at:

Het Weer Aktueel

UK Metoffice

European Weather Network

WeatherCloud

Weather Underground

benelux weather network

AWEKAS

WeatherlinkIP

Citizen Weather Observer Program (CWOP)

HAMweather, WeatherForYou, PWS Weather

equipment we use:

weather-station
Davis VP2+
Meteostick connected

weather-program
Meteobridge

weather-server
MeteobridgePro

Davis VP2+<br />Meteostick connected

Meteobridge

MeteobridgePro